Time;durP1;ratioP1;P1;durP2;ratioP2;P2;SDS_P1;SDS_P2;PMS_P1;PMS_P2;Temp;Humidity;BMP_temperature;BMP_pressure;BME280_temperature;BME280_humidity;BME280_pressure;Samples;Min_cycle;Max_cycle;Signal;HPM_P1;HPM_P2
2021/05/09 00:00:39;;;;;;;4.00;3.23;;;10.30;99.90;;;;;;5054367;28;20168;-62
2021/05/09 00:03:05;;;;;;;3.70;3.03;;;10.20;99.90;;;;;;5054173;28;20175;-61
2021/05/09 00:05:31;;;;;;;3.60;2.90;;;10.20;99.90;;;;;;5054175;28;20213;-58
2021/05/09 00:07:56;;;;;;;3.10;2.80;;;10.30;99.90;;;;;;5054464;28;20206;-60
2021/05/09 00:10:22;;;;;;;4.23;3.00;;;10.30;99.90;;;;;;5054638;28;20204;-62
2021/05/09 00:12:48;;;;;;;3.60;2.90;;;10.30;99.90;;;;;;5053850;28;20186;-61
2021/05/09 00:15:18;;;;;;;3.33;2.97;;;10.30;99.90;;;;;;5054630;28;20594;-61
2021/05/09 00:17:44;;;;;;;3.53;3.07;;;10.30;99.90;;;;;;5054203;28;20264;-60
2021/05/09 00:20:11;;;;;;;3.67;2.90;;;10.30;99.90;;;;;;5054218;28;20179;-60
2021/05/09 00:22:37;;;;;;;3.30;2.90;;;10.20;99.90;;;;;;5036271;28;20325;-62
2021/05/09 00:25:04;;;;;;;4.47;3.23;;;10.20;99.90;;;;;;5054466;28;20231;-58
2021/05/09 00:27:29;;;;;;;4.23;2.93;;;10.20;99.90;;;;;;5054439;28;20191;-61
2021/05/09 00:29:55;;;;;;;3.83;2.90;;;10.20;99.90;;;;;;5053862;28;20261;-60
2021/05/09 00:32:20;;;;;;;3.97;2.90;;;10.10;99.90;;;;;;5053932;28;20183;-61
2021/05/09 00:34:46;;;;;;;4.40;3.37;;;10.00;99.90;;;;;;5054026;28;20189;-53
2021/05/09 00:37:11;;;;;;;3.20;2.90;;;10.00;99.90;;;;;;5053851;28;20211;-61
2021/05/09 00:39:37;;;;;;;4.37;3.37;;;9.90;99.90;;;;;;5053787;28;20203;-59
2021/05/09 00:42:04;;;;;;;4.03;2.73;;;9.90;99.90;;;;;;5053756;28;20175;-58
2021/05/09 00:44:30;;;;;;;4.63;2.70;;;9.90;99.90;;;;;;5053958;28;20179;-60
2021/05/09 00:46:56;;;;;;;4.53;2.80;;;9.90;99.90;;;;;;5054314;28;20190;-59
2021/05/09 00:49:22;;;;;;;2.90;2.70;;;9.90;99.90;;;;;;5053575;28;20595;-57
2021/05/09 00:51:48;;;;;;;4.83;3.30;;;9.80;99.90;;;;;;5053485;28;20174;-62
2021/05/09 00:54:21;;;;;;;3.90;2.87;;;9.90;99.90;;;;;;5054095;28;20516;-61
2021/05/09 00:56:48;;;;;;;3.53;3.23;;;9.80;99.90;;;;;;5053780;28;20186;-57
2021/05/09 00:59:15;;;;;;;3.37;2.80;;;9.70;99.90;;;;;;5053656;28;20284;-59
2021/05/09 01:01:43;;;;;;;3.37;2.80;;;9.80;99.90;;;;;;5053424;28;20197;-57
2021/05/09 01:04:11;;;;;;;3.90;3.33;;;9.70;99.90;;;;;;5053990;28;20309;-60
2021/05/09 01:06:37;;;;;;;4.00;3.00;;;9.80;99.90;;;;;;5057340;28;20194;-61
2021/05/09 01:09:03;;;;;;;3.47;3.17;;;9.80;99.90;;;;;;5058095;28;20183;-60
2021/05/09 01:11:29;;;;;;;3.90;3.13;;;9.80;99.90;;;;;;5057264;28;20175;-60
2021/05/09 01:13:54;;;;;;;3.93;2.80;;;9.70;99.90;;;;;;5057643;28;20179;-61
2021/05/09 01:16:20;;;;;;;3.20;2.70;;;9.70;99.90;;;;;;5057423;28;20203;-59
2021/05/09 01:18:45;;;;;;;3.40;3.10;;;9.80;99.90;;;;;;5057614;28;20207;-56
2021/05/09 01:21:11;;;;;;;3.30;3.00;;;9.80;99.90;;;;;;5057408;28;20178;-57
2021/05/09 01:23:36;;;;;;;3.17;2.87;;;9.80;99.90;;;;;;5057850;28;20171;-60
2021/05/09 01:26:02;;;;;;;4.00;3.10;;;9.80;99.90;;;;;;5057071;28;20198;-61
2021/05/09 01:28:28;;;;;;;3.90;3.50;;;9.80;99.90;;;;;;5057266;28;20186;-61
2021/05/09 01:30:54;;;;;;;3.83;3.33;;;9.80;99.90;;;;;;5057263;28;20186;-60
2021/05/09 01:33:19;;;;;;;3.33;3.00;;;9.80;99.90;;;;;;5057410;28;20618;-61
2021/05/09 01:35:45;;;;;;;3.77;2.90;;;9.80;99.90;;;;;;5057525;28;20178;-58
2021/05/09 01:38:11;;;;;;;3.20;2.90;;;9.80;99.90;;;;;;5056827;28;20215;-61
2021/05/09 01:40:36;;;;;;;3.43;3.03;;;9.80;99.90;;;;;;5056877;28;20301;-60
2021/05/09 01:43:02;;;;;;;3.53;3.23;;;9.70;99.90;;;;;;5056821;28;20258;-59
2021/05/09 01:45:27;;;;;;;6.63;3.47;;;9.60;99.90;;;;;;5057054;28;20202;-60
2021/05/09 01:47:53;;;;;;;3.77;3.43;;;9.60;99.90;;;;;;5057150;28;20639;-60
2021/05/09 01:50:19;;;;;;;5.20;3.60;;;9.60;99.90;;;;;;5057208;28;20201;-60
2021/05/09 01:52:45;;;;;;;5.40;3.37;;;9.60;99.90;;;;;;5056930;28;20233;-61
2021/05/09 01:55:22;;;;;;;3.57;3.13;;;9.60;99.90;;;;;;5056828;28;20254;-61
2021/05/09 01:57:48;;;;;;;4.70;3.30;;;9.50;99.90;;;;;;5057130;28;20286;-60
2021/05/09 02:00:19;;;;;;;4.70;3.60;;;9.40;99.90;;;;;;5056867;28;20175;-60
2021/05/09 02:02:45;;;;;;;4.03;3.60;;;9.40;99.90;;;;;;5056889;28;20167;-57
2021/05/09 02:05:12;;;;;;;4.57;3.37;;;9.40;99.90;;;;;;5056739;28;20190;-59
2021/05/09 02:07:37;;;;;;;4.70;3.50;;;9.40;99.90;;;;;;5056398;28;20210;-61
2021/05/09 02:10:05;;;;;;;3.97;3.30;;;9.30;99.90;;;;;;5056905;28;20175;-58
2021/05/09 02:12:31;;;;;;;3.90;3.30;;;9.30;99.90;;;;;;5056346;28;20623;-60
2021/05/09 02:14:56;;;;;;;3.60;3.30;;;9.30;99.90;;;;;;5056516;28;20205;-62
2021/05/09 02:17:22;;;;;;;4.27;3.00;;;9.30;99.90;;;;;;5055744;28;20210;-62
2021/05/09 02:19:47;;;;;;;3.70;3.40;;;9.30;99.90;;;;;;5056233;28;20206;-61
2021/05/09 02:22:13;;;;;;;5.17;3.37;;;9.30;99.90;;;;;;5056109;28;20180;-60
2021/05/09 02:24:39;;;;;;;3.63;3.10;;;9.30;99.90;;;;;;5056136;28;20313;-60
2021/05/09 02:27:05;;;;;;;4.17;3.33;;;9.30;99.90;;;;;;5056280;28;20206;-60
2021/05/09 02:29:30;;;;;;;3.10;2.80;;;9.30;99.90;;;;;;5056105;28;20665;-61
2021/05/09 02:31:56;;;;;;;3.03;2.73;;;9.30;99.90;;;;;;5055908;28;20179;-61
2021/05/09 02:34:21;;;;;;;4.20;3.30;;;9.30;99.90;;;;;;5056486;28;20650;-60
2021/05/09 02:36:47;;;;;;;3.20;2.83;;;9.30;99.90;;;;;;5056030;28;20206;-59
2021/05/09 02:39:13;;;;;;;3.00;2.70;;;9.30;99.90;;;;;;5055822;28;20663;-61
2021/05/09 02:41:39;;;;;;;4.70;3.13;;;9.30;99.90;;;;;;5055598;28;20175;-59
2021/05/09 02:44:06;;;;;;;3.20;2.90;;;9.20;99.90;;;;;;5056121;28;20250;-60
2021/05/09 02:46:32;;;;;;;3.53;3.00;;;9.20;99.90;;;;;;5056061;28;20199;-62
2021/05/09 02:48:57;;;;;;;3.40;3.10;;;9.20;99.90;;;;;;5056289;28;20233;-62
2021/05/09 02:51:23;;;;;;;3.07;2.73;;;9.20;99.90;;;;;;5055954;28;20179;-61
2021/05/09 02:53:48;;;;;;;3.97;2.60;;;9.20;99.90;;;;;;5055611;28;20179;-60
2021/05/09 02:56:14;;;;;;;3.67;3.17;;;9.20;99.90;;;;;;5055957;28;20201;-58
2021/05/09 02:58:39;;;;;;;3.20;2.90;;;9.20;99.90;;;;;;5055821;28;20211;-60
2021/05/09 03:01:05;;;;;;;3.00;2.70;;;9.20;99.90;;;;;;5055617;28;20187;-61
2021/05/09 03:03:31;;;;;;;4.40;3.00;;;9.20;99.90;;;;;;5055879;28;20258;-60
2021/05/09 03:05:56;;;;;;;4.23;2.83;;;9.10;99.90;;;;;;5055391;28;20191;-62
2021/05/09 03:08:22;;;;;;;2.97;2.70;;;9.10;99.90;;;;;;5055538;28;20175;-60
2021/05/09 03:10:47;;;;;;;3.87;2.70;;;9.10;99.90;;;;;;5055423;28;20176;-58
2021/05/09 03:13:13;;;;;;;3.30;2.90;;;9.10;99.90;;;;;;5055574;28;20186;-59
2021/05/09 03:15:39;;;;;;;4.00;2.87;;;9.20;99.90;;;;;;5055106;28;20178;-57
2021/05/09 03:18:04;;;;;;;3.27;2.90;;;9.20;99.90;;;;;;5055532;28;20235;-61
2021/05/09 03:20:30;;;;;;;3.53;2.60;;;9.10;99.90;;;;;;5037811;28;20225;-61
2021/05/09 03:22:56;;;;;;;3.17;2.70;;;9.00;99.90;;;;;;5055089;28;20255;-60
2021/05/09 03:25:21;;;;;;;4.33;2.50;;;9.00;99.90;;;;;;5055271;28;20175;-61
2021/05/09 03:27:47;;;;;;;2.90;2.60;;;9.00;99.90;;;;;;5054221;28;20535;-60
2021/05/09 03:30:13;;;;;;;3.40;3.10;;;8.90;99.90;;;;;;5054847;28;20199;-61
2021/05/09 03:32:38;;;;;;;3.63;2.87;;;8.90;99.90;;;;;;5054494;28;20171;-57
2021/05/09 03:35:08;;;;;;;3.10;2.73;;;8.80;99.90;;;;;;5055305;28;20181;-60
2021/05/09 03:37:34;;;;;;;2.97;2.77;;;8.90;99.90;;;;;;5054609;28;20214;-59
2021/05/09 03:40:00;;;;;;;2.87;2.50;;;8.90;99.90;;;;;;5055007;28;20185;-59
2021/05/09 03:42:26;;;;;;;3.10;2.30;;;8.90;99.90;;;;;;5054742;28;20167;-60
2021/05/09 03:44:51;;;;;;;3.23;2.53;;;8.90;99.90;;;;;;5054781;28;20172;-60
2021/05/09 03:47:17;;;;;;;2.93;2.60;;;8.90;99.90;;;;;;5055044;28;20198;-58
2021/05/09 03:49:42;;;;;;;3.03;2.50;;;8.90;99.90;;;;;;5054603;28;20167;-62
2021/05/09 03:52:08;;;;;;;2.73;2.53;;;8.90;99.90;;;;;;5054245;28;20645;-58
2021/05/09 03:54:33;;;;;;;3.03;2.73;;;9.00;99.90;;;;;;5054671;28;20175;-61
2021/05/09 03:56:59;;;;;;;3.07;2.77;;;9.00;99.90;;;;;;5054693;28;20199;-61
2021/05/09 03:59:25;;;;;;;2.70;2.50;;;9.00;99.90;;;;;;5054420;28;20230;-61
2021/05/09 04:01:50;;;;;;;4.07;2.90;;;8.90;99.90;;;;;;5054438;28;20171;-57
2021/05/09 04:04:16;;;;;;;3.17;2.80;;;8.90;99.90;;;;;;5054806;28;20511;-62
2021/05/09 04:06:41;;;;;;;2.77;2.57;;;8.90;99.90;;;;;;5054114;28;20195;-61
2021/05/09 04:09:08;;;;;;;3.77;3.33;;;8.80;99.90;;;;;;5054366;28;20217;-59
2021/05/09 04:11:34;;;;;;;5.37;3.13;;;8.90;99.90;;;;;;5054118;28;20183;-59
2021/05/09 04:14:00;;;;;;;3.33;3.00;;;8.90;99.90;;;;;;5054454;28;20177;-61
2021/05/09 04:16:25;;;;;;;3.80;3.27;;;8.90;99.90;;;;;;5053998;28;20194;-58
2021/05/09 04:18:51;;;;;;;3.93;3.10;;;9.00;99.90;;;;;;5053841;28;20191;-61
2021/05/09 04:21:16;;;;;;;3.23;2.93;;;9.00;99.90;;;;;;5053967;28;20602;-60
2021/05/09 04:23:42;;;;;;;3.30;3.00;;;9.00;99.90;;;;;;5054239;28;20185;-58
2021/05/09 04:26:07;;;;;;;4.93;3.67;;;9.10;99.90;;;;;;5054003;28;20190;-60
2021/05/09 04:28:33;;;;;;;3.60;3.30;;;9.10;99.90;;;;;;5054577;28;20177;-60
2021/05/09 04:30:59;;;;;;;4.47;3.60;;;9.10;99.90;;;;;;5054086;28;20185;-62
2021/05/09 04:33:26;;;;;;;3.53;3.23;;;9.10;99.90;;;;;;5054427;28;20175;-60
2021/05/09 04:35:52;;;;;;;4.60;3.93;;;9.20;99.90;;;;;;5053999;28;20175;-62
2021/05/09 04:38:18;;;;;;;4.70;4.10;;;9.20;99.90;;;;;;5053606;28;20301;-58
2021/05/09 04:40:44;;;;;;;4.43;4.03;;;9.30;99.90;;;;;;5054222;28;20175;-60
2021/05/09 04:43:19;;;;;;;3.93;3.30;;;9.30;99.90;;;;;;5053995;28;20171;-59
2021/05/09 04:45:47;;;;;;;4.30;3.60;;;9.40;99.90;;;;;;5054250;28;20174;-57
2021/05/09 04:48:12;;;;;;;4.07;3.50;;;9.40;99.90;;;;;;5053938;28;20171;-62
2021/05/09 04:50:38;;;;;;;3.53;3.23;;;9.40;99.90;;;;;;5035966;28;20630;-59
2021/05/09 04:53:03;;;;;;;4.00;3.60;;;9.40;99.90;;;;;;5053642;28;20283;-59
2021/05/09 04:55:29;;;;;;;4.17;3.70;;;9.40;99.90;;;;;;5054061;28;20174;-59
2021/05/09 04:57:54;;;;;;;4.90;4.13;;;9.50;99.90;;;;;;5053781;28;20289;-58
2021/05/09 05:00:20;;;;;;;4.10;3.63;;;9.70;99.90;;;;;;5054162;28;20696;-62
2021/05/09 05:02:47;;;;;;;4.73;4.20;;;9.80;99.90;;;;;;5053263;28;20176;-61
2021/05/09 05:05:13;;;;;;;4.13;3.73;;;9.80;99.90;;;;;;5053754;28;20179;-61
2021/05/09 05:07:39;;;;;;;5.10;4.60;;;9.90;99.90;;;;;;5053742;28;20199;-61
2021/05/09 05:10:06;;;;;;;5.63;4.67;;;10.00;99.90;;;;;;5053565;28;20171;-59
2021/05/09 05:12:31;;;;;;;6.33;5.63;;;10.10;99.90;;;;;;5053305;28;20171;-60
2021/05/09 05:14:57;;;;;;;5.43;4.67;;;10.20;99.90;;;;;;5053988;28;20171;-58
2021/05/09 05:17:22;;;;;;;7.97;4.73;;;10.20;99.90;;;;;;5054980;28;20245;-61
2021/05/09 05:19:48;;;;;;;4.60;3.50;;;10.30;99.90;;;;;;5072360;28;20194;-59
2021/05/09 05:22:14;;;;;;;4.00;3.43;;;10.40;99.90;;;;;;5060420;28;20183;-62
2021/05/09 05:24:40;;;;;;;3.20;2.70;;;10.50;99.90;;;;;;5054642;28;20186;-61
2021/05/09 05:27:06;;;;;;;3.47;3.17;;;10.50;99.90;;;;;;5065969;28;20242;-59
2021/05/09 05:29:31;;;;;;;3.40;2.80;;;10.60;99.90;;;;;;5053814;28;20183;-58
2021/05/09 05:31:57;;;;;;;2.70;2.50;;;10.70;99.90;;;;;;5059682;28;20185;-60
2021/05/09 05:34:22;;;;;;;3.10;2.80;;;10.80;99.90;;;;;;5073226;28;20175;-59
2021/05/09 05:36:48;;;;;;;4.00;2.93;;;10.90;99.90;;;;;;5061650;28;20516;-59
2021/05/09 05:39:14;;;;;;;2.90;2.60;;;11.00;99.90;;;;;;5053488;28;20203;-61
2021/05/09 05:41:40;;;;;;;4.83;3.00;;;11.10;99.90;;;;;;5053068;28;20538;-62
2021/05/09 05:44:06;;;;;;;3.47;2.77;;;11.20;99.90;;;;;;5053406;28;20190;-62
2021/05/09 05:46:32;;;;;;;3.30;2.83;;;11.20;99.90;;;;;;5053186;28;20205;-60
2021/05/09 05:48:58;;;;;;;3.13;2.57;;;11.30;99.90;;;;;;5062094;28;20193;-61
2021/05/09 05:51:23;;;;;;;3.13;2.33;;;11.40;99.90;;;;;;5074708;28;20182;-63
2021/05/09 05:53:53;;;;;;;4.00;2.17;;;11.50;99.90;;;;;;5066976;28;20206;-55
2021/05/09 05:56:18;;;;;;;4.60;2.40;;;11.50;99.90;;;;;;5044324;28;20194;-62
2021/05/09 05:58:44;;;;;;;4.63;2.50;;;11.60;99.90;;;;;;5065180;28;20225;-62
2021/05/09 06:01:09;;;;;;;2.43;2.23;;;11.70;99.90;;;;;;5073705;28;20166;-60
2021/05/09 06:03:35;;;;;;;3.10;2.43;;;11.80;99.90;;;;;;5067939;28;20167;-57
2021/05/09 06:06:00;;;;;;;2.60;2.30;;;11.90;99.90;;;;;;5053110;28;20528;-58
2021/05/09 06:08:26;;;;;;;3.30;2.17;;;12.00;99.90;;;;;;5057283;28;20206;-60
2021/05/09 06:10:52;;;;;;;2.70;2.33;;;12.10;99.90;;;;;;5073412;28;20274;-61
2021/05/09 06:13:23;;;;;;;2.97;2.37;;;12.20;99.90;;;;;;5071538;28;20178;-61
2021/05/09 06:15:49;;;;;;;3.47;2.37;;;12.30;99.90;;;;;;5055020;28;20248;-61
2021/05/09 06:18:14;;;;;;;2.30;2.10;;;12.40;99.90;;;;;;5058815;28;20586;-56
2021/05/09 06:20:40;;;;;;;2.83;2.30;;;12.40;99.90;;;;;;5058345;28;20201;-61
2021/05/09 06:23:05;;;;;;;3.37;2.40;;;12.50;99.90;;;;;;5072838;28;20186;-63
2021/05/09 06:25:32;;;;;;;3.13;2.20;;;12.50;99.90;;;;;;5076213;28;20170;-59
2021/05/09 06:27:57;;;;;;;2.70;2.17;;;12.60;99.90;;;;;;5057402;28;20729;-63
2021/05/09 06:30:23;;;;;;;2.23;2.00;;;12.70;99.90;;;;;;5054696;28;20205;-61
2021/05/09 06:32:49;;;;;;;2.57;2.30;;;12.80;99.90;;;;;;5054662;28;20313;-62
2021/05/09 06:35:15;;;;;;;2.37;2.07;;;12.80;99.90;;;;;;5055725;28;20179;-60
2021/05/09 06:37:41;;;;;;;2.77;2.20;;;12.70;99.90;;;;;;5053540;28;20725;-59
2021/05/09 06:40:07;;;;;;;2.13;1.93;;;12.80;99.90;;;;;;5055759;28;20175;-61
2021/05/09 06:42:33;;;;;;;2.90;2.17;;;12.90;99.90;;;;;;5053971;28;20172;-58
2021/05/09 06:45:17;;;;;;;2.87;2.30;;;12.90;99.90;;;;;;5055846;28;20225;-61
2021/05/09 06:47:43;;;;;;;2.63;1.90;;;13.00;99.90;;;;;;5055866;28;20198;-59
2021/05/09 06:50:09;;;;;;;2.20;2.00;;;13.20;99.90;;;;;;5055965;28;20172;-59
2021/05/09 06:52:34;;;;;;;2.70;1.73;;;13.20;99.90;;;;;;5055846;28;20258;-59
2021/05/09 06:55:02;;;;;;;1.97;1.87;;;13.40;99.90;;;;;;5055592;28;20179;-64
2021/05/09 06:57:28;;;;;;;1.77;1.67;;;13.50;99.90;;;;;;5055688;28;20187;-56
2021/05/09 06:59:53;;;;;;;2.67;2.20;;;13.50;99.90;;;;;;5055673;28;20211;-63
2021/05/09 07:02:19;;;;;;;2.80;2.17;;;13.50;99.90;;;;;;5055488;28;20210;-62
2021/05/09 07:04:44;;;;;;;3.47;1.90;;;13.70;99.90;;;;;;5055753;28;20175;-60
2021/05/09 07:07:10;;;;;;;1.83;1.70;;;13.80;99.90;;;;;;5055125;28;20189;-62
2021/05/09 07:09:35;;;;;;;2.50;2.20;;;13.90;99.90;;;;;;5055809;28;20172;-62
2021/05/09 07:12:01;;;;;;;2.30;2.00;;;13.90;99.90;;;;;;5055183;28;20170;-61
2021/05/09 07:14:26;;;;;;;2.53;1.80;;;14.10;99.90;;;;;;5055394;28;20185;-58
2021/05/09 07:16:52;;;;;;;2.30;2.07;;;14.10;99.80;;;;;;5055438;28;20201;-59
2021/05/09 07:19:18;;;;;;;4.20;2.13;;;15.50;99.90;;;;;;5055523;28;20509;-61
2021/05/09 07:21:51;;;;;;;2.07;1.87;;;14.50;99.40;;;;;;5055067;28;20235;-64
2021/05/09 07:24:16;;;;;;;2.20;1.80;;;14.60;99.40;;;;;;5055640;28;20169;-64
2021/05/09 07:26:43;;;;;;;1.77;1.60;;;14.70;98.80;;;;;;5054954;28;20193;-64
2021/05/09 07:29:08;;;;;;;2.00;1.80;;;14.70;99.30;;;;;;5054975;28;20248;-60
2021/05/09 07:31:40;;;;;;;1.93;1.67;;;14.80;98.90;;;;;;5054790;28;20182;-57
2021/05/09 07:34:05;;;;;;;1.50;1.40;;;14.90;99.20;;;;;;5055288;28;20684;-62
2021/05/09 07:36:31;;;;;;;2.70;1.70;;;15.10;99.90;;;;;;5055261;28;20695;-59
2021/05/09 07:38:56;;;;;;;1.77;1.67;;;15.30;98.70;;;;;;5054494;28;20216;-64
2021/05/09 07:41:22;;;;;;;1.87;1.63;;;15.40;98.00;;;;;;5054379;28;20198;-64
2021/05/09 07:43:48;;;;;;;1.60;1.47;;;15.50;98.80;;;;;;5054878;28;20171;-62
2021/05/09 07:46:14;;;;;;;1.60;1.50;;;15.60;97.80;;;;;;5054641;28;20187;-61
2021/05/09 07:48:39;;;;;;;1.53;1.43;;;15.60;98.30;;;;;;5055104;28;20574;-61
2021/05/09 07:51:05;;;;;;;2.20;1.47;;;15.70;97.70;;;;;;5054756;28;20220;-60
2021/05/09 07:53:31;;;;;;;1.90;1.40;;;15.80;97.90;;;;;;5054294;28;20183;-61
2021/05/09 07:55:56;;;;;;;2.23;1.50;;;15.90;96.90;;;;;;5054355;28;20245;-62
2021/05/09 07:58:22;;;;;;;2.47;1.77;;;16.10;97.90;;;;;;5054949;28;20230;-61
2021/05/09 08:00:49;;;;;;;1.70;1.60;;;16.30;97.30;;;;;;5054732;28;20175;-62
2021/05/09 08:03:16;;;;;;;1.60;1.50;;;16.50;97.40;;;;;;5054600;28;20167;-56
2021/05/09 08:05:41;;;;;;;1.67;1.40;;;16.60;96.60;;;;;;5054626;28;20693;-64
2021/05/09 08:08:08;;;;;;;1.57;1.47;;;16.70;97.60;;;;;;5054396;28;20175;-64
2021/05/09 08:10:36;;;;;;;1.50;1.40;;;17.00;98.50;;;;;;5036428;28;20293;-61
2021/05/09 08:13:06;;;;;;;1.67;1.43;;;17.10;97.20;;;;;;5053796;28;20497;-60
2021/05/09 08:15:34;;;;;;;4.43;3.07;;;17.40;96.60;;;;;;5053944;28;20171;-64
2021/05/09 08:18:00;;;;;;;3.80;2.00;;;17.70;96.10;;;;;;5036494;28;20218;-64
2021/05/09 08:20:26;;;;;;;1.87;1.50;;;17.70;95.90;;;;;;5054572;28;20173;-62
2021/05/09 08:22:52;;;;;;;1.63;1.50;;;17.80;95.70;;;;;;5054051;28;20172;-64
2021/05/09 08:25:19;;;;;;;1.80;1.70;;;17.90;95.80;;;;;;5053867;28;20185;-63
2021/05/09 08:27:45;;;;;;;3.50;2.40;;;17.90;94.90;;;;;;5054074;28;20195;-60
2021/05/09 08:30:13;;;;;;;2.60;1.57;;;18.00;96.00;;;;;;5053885;28;20252;-60
2021/05/09 08:32:39;;;;;;;2.07;1.50;;;18.10;95.70;;;;;;5053869;28;20179;-59
2021/05/09 08:35:06;;;;;;;1.50;1.40;;;18.60;96.70;;;;;;5054435;28;20646;-60
2021/05/09 08:37:32;;;;;;;1.70;1.20;;;18.40;94.20;;;;;;5036082;28;20675;-61
2021/05/09 08:39:58;;;;;;;2.30;1.73;;;18.30;94.20;;;;;;5054039;28;20206;-62
2021/05/09 08:42:24;;;;;;;1.60;1.50;;;18.50;95.00;;;;;;5054017;28;20174;-61
2021/05/09 08:44:52;;;;;;;1.57;1.37;;;18.50;94.50;;;;;;5054176;28;20504;-58
2021/05/09 08:47:22;;;;;;;2.80;1.37;;;18.80;95.30;;;;;;5054220;28;20183;-61
2021/05/09 08:49:49;;;;;;;3.33;1.80;;;19.00;95.60;;;;;;5053878;28;20183;-62
2021/05/09 08:52:19;;;;;;;1.50;1.40;;;19.10;95.20;;;;;;5053762;28;20177;-62
2021/05/09 08:54:46;;;;;;;1.63;1.23;;;19.10;95.50;;;;;;5053910;28;20180;-64
2021/05/09 08:57:12;;;;;;;1.40;1.30;;;19.30;94.70;;;;;;5053829;28;20199;-64
2021/05/09 08:59:38;;;;;;;1.67;1.47;;;19.50;95.50;;;;;;5054019;28;20701;-60
2021/05/09 09:02:04;;;;;;;2.00;1.60;;;19.60;94.50;;;;;;5053578;28;20203;-62
2021/05/09 09:04:46;;;;;;;2.23;1.40;;;19.70;94.00;;;;;;5053767;28;20182;-62
2021/05/09 09:07:12;;;;;;;1.60;1.50;;;19.90;93.30;;;;;;5053817;28;20196;-58
2021/05/09 09:09:46;;;;;;;1.30;1.20;;;19.80;93.40;;;;;;5054017;28;20175;-63
2021/05/09 09:12:13;;;;;;;1.83;1.20;;;19.80;93.00;;;;;;5053194;28;20175;-62
2021/05/09 09:14:55;;;;;;;1.50;1.23;;;19.80;93.90;;;;;;5053500;28;20175;-58
2021/05/09 09:17:21;;;;;;;1.83;1.40;;;19.90;93.20;;;;;;5053751;28;20230;-61
2021/05/09 09:20:07;;;;;;;1.40;1.30;;;19.80;93.60;;;;;;5053773;28;20253;-58
2021/05/09 09:25:19;;;;;;;2.40;1.50;;;19.90;92.40;;;;;;5053673;28;20167;-64
2021/05/09 09:27:45;;;;;;;1.77;1.40;;;19.90;92.60;;;;;;5057273;28;20198;-64
2021/05/09 09:30:12;;;;;;;1.50;1.40;;;20.00;93.50;;;;;;5057435;28;20630;-59
2021/05/09 09:32:38;;;;;;;2.67;1.30;;;20.00;93.10;;;;;;5057453;28;20237;-58
2021/05/09 09:35:24;;;;;;;2.57;1.50;;;20.20;94.70;;;;;;5057718;28;20175;-62
2021/05/09 09:37:50;;;;;;;2.10;1.83;;;20.40;94.00;;;;;;5056631;28;20222;-58
2021/05/09 09:40:15;;;;;;;1.67;1.57;;;20.50;93.90;;;;;;5057168;28;20159;-59
2021/05/09 09:42:43;;;;;;;2.00;1.43;;;20.80;94.40;;;;;;5056851;28;20172;-58
2021/05/09 09:45:19;;;;;;;1.37;1.20;;;21.00;93.80;;;;;;5057325;28;20255;-60
2021/05/09 09:47:56;;;;;;;1.95;1.10;;;21.20;92.20;;;;;;5057216;28;20277;-62
2021/05/09 09:50:43;;;;;;;1.17;1.10;;;21.30;92.20;;;;;;5057032;28;20217;-64
2021/05/09 09:53:35;;;;;;;1.52;1.38;;;21.30;92.10;;;;;;5057004;28;20177;-59
2021/05/09 09:56:06;;;;;;;2.25;1.33;;;21.70;93.50;;;;;;5057019;28;20246;-62
2021/05/09 09:58:57;;;;;;;1.40;1.13;;;21.80;91.90;;;;;;5056727;28;20193;-62
2021/05/09 10:01:34;;;;;;;1.10;1.00;;;21.90;92.00;;;;;;5056464;28;20522;-62
2021/05/09 10:04:02;;;;;;;2.40;1.25;;;22.00;91.40;;;;;;5057101;28;20257;-61
2021/05/09 10:06:29;;;;;;;1.30;1.20;;;22.10;90.50;;;;;;5056957;28;20566;-56
2021/05/09 10:08:58;;;;;;;1.35;1.10;;;22.20;91.90;;;;;;5056396;28;20258;-59
2021/05/09 10:11:25;;;;;;;1.80;1.20;;;22.40;93.10;;;;;;5056582;28;20171;-60
2021/05/09 10:13:54;;;;;;;2.60;1.40;;;22.90;90.20;;;;;;5056635;28;20646;-61
2021/05/09 10:16:22;;;;;;;1.30;1.10;;;22.70;91.60;;;;;;5056390;28;20196;-60
2021/05/09 10:18:55;;;;;;;1.48;1.38;;;22.80;89.30;;;;;;5056171;28;20195;-60
2021/05/09 10:21:27;;;;;;;1.33;1.17;;;22.90;91.80;;;;;;5056490;28;20683;-64
2021/05/09 10:24:22;;;;;;;1.50;1.30;;;23.10;90.00;;;;;;5056503;28;20171;-60
2021/05/09 10:26:57;;;;;;;1.52;1.20;;;23.10;90.90;;;;;;5056026;28;20195;-62
2021/05/09 10:29:36;;;;;;;2.25;2.05;;;23.40;92.20;;;;;;5056540;28;20183;-64
2021/05/09 10:32:08;;;;;;;1.50;1.40;;;23.30;89.50;;;;;;5055803;28;20650;-58
2021/05/09 10:34:56;;;;;;;1.45;1.35;;;23.40;89.10;;;;;;5056086;28;20508;-59
2021/05/09 10:37:38;;;;;;;1.20;1.15;;;23.50;90.10;;;;;;5055443;28;20222;-61
2021/05/09 10:40:18;;;;;;;0.98;0.95;;;23.70;88.10;;;;;;5056245;28;20563;-62
2021/05/09 10:42:44;;;;;;;2.28;1.55;;;23.50;87.50;;;;;;5055972;28;20167;-58
2021/05/09 10:45:10;;;;;;;1.38;1.10;;;23.40;85.80;;;;;;5056109;28;20163;-59
2021/05/09 10:47:36;;;;;;;1.27;1.10;;;23.40;85.30;;;;;;5056079;28;20191;-62
2021/05/09 10:50:27;;;;;;;1.77;1.58;;;23.50;88.70;;;;;;5056011;28;20190;-61
2021/05/09 10:52:53;;;;;;;4.40;1.65;;;23.70;88.10;;;;;;5055690;28;20176;-59
2021/05/09 10:55:38;;;;;;;2.45;1.13;;;24.00;87.10;;;;;;5055910;28;20187;-62
2021/05/09 10:58:05;;;;;;;1.95;1.02;;;24.10;87.40;;;;;;5055881;28;20206;-64
2021/05/09 11:00:55;;;;;;;1.88;1.20;;;24.10;85.90;;;;;;5056005;28;20493;-64
2021/05/09 11:03:36;;;;;;;1.00;1.00;;;24.20;82.80;;;;;;5055701;28;20171;-57
2021/05/09 11:06:08;;;;;;;0.98;0.80;;;24.40;81.40;;;;;;5055371;28;20191;-63
2021/05/09 11:08:43;;;;;;;1.45;1.25;;;24.50;80.00;;;;;;5055552;28;20186;-64
2021/05/09 11:11:18;;;;;;;1.70;1.10;;;24.40;82.90;;;;;;5055575;28;20171;-63
2021/05/09 11:14:03;;;;;;;1.52;0.90;;;24.80;82.40;;;;;;5037518;28;20186;-61
2021/05/09 11:16:29;;;;;;;1.13;0.95;;;24.90;85.90;;;;;;5037220;28;20207;-64
2021/05/09 11:18:59;;;;;;;1.10;0.95;;;24.90;80.20;;;;;;5055510;28;20195;-63
2021/05/09 11:21:25;;;;;;;1.08;0.98;;;25.00;80.60;;;;;;5055266;28;20627;-65
2021/05/09 11:23:52;;;;;;;0.80;0.80;;;25.10;79.70;;;;;;5055675;28;20172;-62
2021/05/09 11:26:25;;;;;;;1.38;1.10;;;25.20;81.00;;;;;;5055028;28;20191;-62
2021/05/09 11:29:27;;;;;;;1.20;0.93;;;25.40;80.20;;;;;;5055303;28;20181;-65
2021/05/09 11:32:07;;;;;;;0.70;0.70;;;25.60;77.30;;;;;;4974118;28;20657;-60
2021/05/09 11:34:33;;;;;;;1.92;0.85;;;25.60;76.00;;;;;;4974206;28;20247;-65
2021/05/09 11:37:00;;;;;;;1.38;1.15;;;25.80;73.40;;;;;;4973947;28;20241;-63
2021/05/09 11:39:28;;;;;;;0.80;0.80;;;26.00;78.50;;;;;;4974234;28;20248;-65
2021/05/09 11:41:54;;;;;;;1.02;0.80;;;26.10;69.80;;;;;;4973862;28;20265;-65
2021/05/09 11:44:25;;;;;;;0.80;0.80;;;26.10;73.90;;;;;;4974465;28;20250;-65
2021/05/09 11:46:52;;;;;;;0.82;0.80;;;26.30;75.60;;;;;;4974025;28;20205;-60
2021/05/09 11:49:20;;;;;;;1.65;1.20;;;26.40;75.00;;;;;;4973361;28;20178;-65
2021/05/09 11:52:01;;;;;;;1.45;1.00;;;26.60;74.20;;;;;;4973463;28;20221;-65
2021/05/09 11:54:29;;;;;;;1.05;1.00;;;26.70;71.20;;;;;;4974133;28;20685;-63
2021/05/09 11:56:57;;;;;;;0.90;0.80;;;26.80;72.00;;;;;;4974301;28;20201;-63
2021/05/09 11:59:41;;;;;;;0.90;0.88;;;26.90;71.90;;;;;;4973744;28;20366;-60
2021/05/09 12:02:13;;;;;;;0.70;0.70;;;26.70;71.20;;;;;;4973622;28;20555;-62
2021/05/09 12:04:39;;;;;;;0.80;0.75;;;26.70;71.30;;;;;;4975196;28;20181;-65
2021/05/09 12:07:07;;;;;;;2.33;0.88;;;26.70;68.60;;;;;;5054151;28;20218;-61
2021/05/09 12:09:33;;;;;;;1.73;0.90;;;26.70;66.20;;;;;;5054285;28;20178;-63
2021/05/09 12:12:00;;;;;;;1.05;0.70;;;26.70;71.50;;;;;;5054076;28;20171;-63
2021/05/09 12:14:27;;;;;;;1.02;0.80;;;26.90;68.00;;;;;;5054485;28;20503;-63
2021/05/09 12:16:53;;;;;;;0.95;0.77;;;26.90;68.30;;;;;;5054355;28;20191;-65
2021/05/09 12:19:19;;;;;;;1.08;0.60;;;27.00;66.40;;;;;;5054413;28;20196;-63
2021/05/09 12:21:59;;;;;;;0.90;0.73;;;26.70;64.00;;;;;;5054095;28;20180;-65
2021/05/09 12:24:25;;;;;;;0.90;0.65;;;26.60;66.30;;;;;;5054257;28;20182;-62
2021/05/09 12:26:59;;;;;;;0.85;0.70;;;26.70;64.40;;;;;;5054004;28;20211;-62
2021/05/09 12:29:25;;;;;;;1.08;0.90;;;26.80;67.80;;;;;;5054253;28;20265;-60
2021/05/09 12:31:52;;;;;;;2.13;0.80;;;26.90;63.70;;;;;;5053940;28;20256;-60
2021/05/09 12:34:25;;;;;;;1.02;0.95;;;26.70;63.40;;;;;;5053806;28;20185;-61
2021/05/09 12:37:12;;;;;;;1.00;0.82;;;26.50;62.90;;;;;;5053641;28;20207;-59
2021/05/09 12:39:38;;;;;;;0.60;0.60;;;26.50;65.10;;;;;;5054169;28;20203;-63
2021/05/09 12:42:04;;;;;;;1.52;1.23;;;26.60;63.90;;;;;;5053710;28;20175;-59
2021/05/09 12:44:30;;;;;;;2.42;0.85;;;26.70;62.70;;;;;;5054259;28;20233;-65
2021/05/09 12:46:56;;;;;;;1.02;0.60;;;27.00;63.20;;;;;;5054230;28;20195;-62
2021/05/09 12:49:29;;;;;;;1.27;0.63;;;27.10;60.50;;;;;;5053884;28;20179;-64
2021/05/09 12:52:03;;;;;;;0.63;0.63;;;27.30;60.40;;;;;;5053916;28;20697;-60
2021/05/09 12:54:34;;;;;;;1.67;0.60;;;27.60;60.40;;;;;;5054035;28;20209;-63
2021/05/09 12:57:20;;;;;;;0.60;0.50;;;27.60;55.80;;;;;;5053754;28;20542;-65